Terminal Aerodrome Forecast
Issued by NWS

Home | Current Version | Previous Version | Text Only | Print | Product List | Glossary On
Versions: 1 2 3 4 5 6 7 8 9 10 11 12 13 14 15 16 17
000
FTUS42 KFFC 281100
TAFFTY
TAF
KFTY 281121Z 2812/2912 24007KT P6SM VCSH SCT025 BKN040
      TEMPO 2812/2814 6SM -SHRA BKN025
     FM281400 29008G16KT P6SM SCT050 BKN080
     FM281700 31010G18KT P6SM SCT100
     FM290100 32008KT P6SM SKC=

USA.gov is the U.S. government's official web portal to all federal, state and local government web resources and services.